sensor_id;sensor_type;location;lat;lon;timestamp;P1;durP1;ratioP1;P2;durP2;ratioP2
11086;SDS011;5597;47.588;9.642;2023-02-15T00:01:42;18.87;;;13.20;;
11086;SDS011;5597;47.588;9.642;2023-02-15T00:04:08;17.87;;;13.57;;
11086;SDS011;5597;47.588;9.642;2023-02-15T00:06:35;17.13;;;13.23;;
11086;SDS011;5597;47.588;9.642;2023-02-15T00:09:01;17.60;;;13.43;;
11086;SDS011;5597;47.588;9.642;2023-02-15T00:11:27;18.93;;;14.67;;
11086;SDS011;5597;47.588;9.642;2023-02-15T00:14:06;19.97;;;14.33;;
11086;SDS011;5597;47.588;9.642;2023-02-15T00:16:33;18.07;;;13.43;;
11086;SDS011;5597;47.588;9.642;2023-02-15T00:18:59;18.87;;;14.30;;
11086;SDS011;5597;47.588;9.642;2023-02-15T00:21:26;20.10;;;15.10;;
11086;SDS011;5597;47.588;9.642;2023-02-15T00:23:57;20.47;;;14.60;;
11086;SDS011;5597;47.588;9.642;2023-02-15T00:26:24;21.33;;;15.20;;
11086;SDS011;5597;47.588;9.642;2023-02-15T00:28:50;20.20;;;15.30;;
11086;SDS011;5597;47.588;9.642;2023-02-15T00:31:16;21.27;;;16.07;;
11086;SDS011;5597;47.588;9.642;2023-02-15T00:33:41;18.00;;;13.27;;
11086;SDS011;5597;47.588;9.642;2023-02-15T00:36:08;18.40;;;13.30;;
11086;SDS011;5597;47.588;9.642;2023-02-15T00:38:35;16.63;;;12.50;;
11086;SDS011;5597;47.588;9.642;2023-02-15T00:41:01;18.33;;;13.60;;
11086;SDS011;5597;47.588;9.642;2023-02-15T00:43:29;18.07;;;13.80;;
11086;SDS011;5597;47.588;9.642;2023-02-15T00:45:55;18.57;;;13.57;;
11086;SDS011;5597;47.588;9.642;2023-02-15T00:48:21;18.07;;;13.30;;
11086;SDS011;5597;47.588;9.642;2023-02-15T00:50:52;18.27;;;13.37;;
11086;SDS011;5597;47.588;9.642;2023-02-15T00:53:19;18.53;;;13.73;;
11086;SDS011;5597;47.588;9.642;2023-02-15T00:55:45;19.77;;;14.47;;
11086;SDS011;5597;47.588;9.642;2023-02-15T00:58:11;20.90;;;14.17;;
11086;SDS011;5597;47.588;9.642;2023-02-15T01:00:37;19.80;;;14.20;;
11086;SDS011;5597;47.588;9.642;2023-02-15T01:03:04;20.00;;;15.23;;
11086;SDS011;5597;47.588;9.642;2023-02-15T01:05:30;22.20;;;15.90;;
11086;SDS011;5597;47.588;9.642;2023-02-15T01:07:57;21.87;;;15.57;;
11086;SDS011;5597;47.588;9.642;2023-02-15T01:10:24;20.87;;;15.33;;
11086;SDS011;5597;47.588;9.642;2023-02-15T01:12:50;20.63;;;15.53;;
11086;SDS011;5597;47.588;9.642;2023-02-15T01:15:16;21.70;;;15.07;;
11086;SDS011;5597;47.588;9.642;2023-02-15T01:17:42;20.30;;;15.23;;
11086;SDS011;5597;47.588;9.642;2023-02-15T01:20:14;20.50;;;14.23;;
11086;SDS011;5597;47.588;9.642;2023-02-15T01:22:40;20.73;;;14.47;;
11086;SDS011;5597;47.588;9.642;2023-02-15T01:25:06;21.90;;;15.57;;
11086;SDS011;5597;47.588;9.642;2023-02-15T01:27:31;22.03;;;14.53;;
11086;SDS011;5597;47.588;9.642;2023-02-15T01:29:57;21.50;;;15.40;;
11086;SDS011;5597;47.588;9.642;2023-02-15T01:32:23;21.80;;;14.33;;
11086;SDS011;5597;47.588;9.642;2023-02-15T01:34:49;20.67;;;15.20;;
11086;SDS011;5597;47.588;9.642;2023-02-15T01:37:14;23.10;;;15.40;;
11086;SDS011;5597;47.588;9.642;2023-02-15T01:39:40;24.53;;;16.40;;
11086;SDS011;5597;47.588;9.642;2023-02-15T01:42:07;24.00;;;16.50;;
11086;SDS011;5597;47.588;9.642;2023-02-15T01:47:19;22.17;;;15.50;;
11086;SDS011;5597;47.588;9.642;2023-02-15T01:50:10;20.27;;;14.47;;
11086;SDS011;5597;47.588;9.642;2023-02-15T01:52:49;21.33;;;14.97;;
11086;SDS011;5597;47.588;9.642;2023-02-15T01:55:34;22.27;;;15.27;;
11086;SDS011;5597;47.588;9.642;2023-02-15T01:58:03;21.90;;;14.43;;
11086;SDS011;5597;47.588;9.642;2023-02-15T02:00:30;21.07;;;14.80;;
11086;SDS011;5597;47.588;9.642;2023-02-15T02:02:56;20.10;;;14.60;;
11086;SDS011;5597;47.588;9.642;2023-02-15T02:05:22;20.33;;;14.57;;
11086;SDS011;5597;47.588;9.642;2023-02-15T02:07:48;19.23;;;14.03;;
11086;SDS011;5597;47.588;9.642;2023-02-15T02:10:17;19.40;;;13.80;;
11086;SDS011;5597;47.588;9.642;2023-02-15T02:12:45;17.40;;;13.30;;
11086;SDS011;5597;47.588;9.642;2023-02-15T02:15:14;21.30;;;15.00;;
11086;SDS011;5597;47.588;9.642;2023-02-15T02:20:28;18.67;;;13.80;;
11086;SDS011;5597;47.588;9.642;2023-02-15T02:35:11;20.43;;;13.97;;
11086;SDS011;5597;47.588;9.642;2023-02-15T02:37:45;20.00;;;14.13;;
11086;SDS011;5597;47.588;9.642;2023-02-15T02:40:19;20.77;;;14.90;;
11086;SDS011;5597;47.588;9.642;2023-02-15T02:43:05;22.10;;;14.47;;
11086;SDS011;5597;47.588;9.642;2023-02-15T02:45:45;23.67;;;15.00;;
11086;SDS011;5597;47.588;9.642;2023-02-15T02:48:20;22.37;;;14.60;;
11086;SDS011;5597;47.588;9.642;2023-02-15T02:50:50;26.73;;;18.43;;
11086;SDS011;5597;47.588;9.642;2023-02-15T02:53:16;26.73;;;18.10;;
11086;SDS011;5597;47.588;9.642;2023-02-15T03:01:15;20.43;;;14.67;;
11086;SDS011;5597;47.588;9.642;2023-02-15T03:03:56;20.37;;;14.30;;
11086;SDS011;5597;47.588;9.642;2023-02-15T03:06:47;21.40;;;15.47;;
11086;SDS011;5597;47.588;9.642;2023-02-15T03:09:27;20.97;;;14.67;;
11086;SDS011;5597;47.588;9.642;2023-02-15T03:12:06;21.20;;;14.77;;
11086;SDS011;5597;47.588;9.642;2023-02-15T03:14:34;23.63;;;15.70;;
11086;SDS011;5597;47.588;9.642;2023-02-15T03:17:00;22.33;;;15.23;;
11086;SDS011;5597;47.588;9.642;2023-02-15T03:19:33;21.57;;;15.03;;
11086;SDS011;5597;47.588;9.642;2023-02-15T03:22:03;22.13;;;15.17;;
11086;SDS011;5597;47.588;9.642;2023-02-15T03:27:11;20.63;;;14.37;;
11086;SDS011;5597;47.588;9.642;2023-02-15T03:29:45;21.57;;;14.77;;
11086;SDS011;5597;47.588;9.642;2023-02-15T03:32:13;22.33;;;14.67;;
11086;SDS011;5597;47.588;9.642;2023-02-15T03:34:41;20.50;;;14.03;;
11086;SDS011;5597;47.588;9.642;2023-02-15T03:37:13;22.07;;;14.93;;
11086;SDS011;5597;47.588;9.642;2023-02-15T03:39:52;20.23;;;13.67;;
11086;SDS011;5597;47.588;9.642;2023-02-15T03:42:33;22.83;;;14.87;;
11086;SDS011;5597;47.588;9.642;2023-02-15T03:45:04;23.27;;;14.87;;
11086;SDS011;5597;47.588;9.642;2023-02-15T03:47:35;21.97;;;14.93;;
11086;SDS011;5597;47.588;9.642;2023-02-15T03:50:05;20.37;;;14.73;;
11086;SDS011;5597;47.588;9.642;2023-02-15T03:53:05;19.93;;;14.47;;
11086;SDS011;5597;47.588;9.642;2023-02-15T03:55:34;17.20;;;13.10;;
11086;SDS011;5597;47.588;9.642;2023-02-15T03:58:00;19.43;;;13.70;;
11086;SDS011;5597;47.588;9.642;2023-02-15T04:01:09;19.07;;;13.47;;
11086;SDS011;5597;47.588;9.642;2023-02-15T04:03:57;19.37;;;13.23;;
11086;SDS011;5597;47.588;9.642;2023-02-15T04:06:27;23.90;;;15.87;;
11086;SDS011;5597;47.588;9.642;2023-02-15T04:08:53;21.33;;;14.67;;
11086;SDS011;5597;47.588;9.642;2023-02-15T04:11:38;21.07;;;14.33;;
11086;SDS011;5597;47.588;9.642;2023-02-15T04:14:03;17.60;;;12.70;;
11086;SDS011;5597;47.588;9.642;2023-02-15T04:16:49;18.10;;;12.33;;
11086;SDS011;5597;47.588;9.642;2023-02-15T04:19:14;17.30;;;11.40;;
11086;SDS011;5597;47.588;9.642;2023-02-15T04:21:58;18.60;;;12.83;;
11086;SDS011;5597;47.588;9.642;2023-02-15T04:24:42;18.30;;;13.07;;
11086;SDS011;5597;47.588;9.642;2023-02-15T04:27:26;17.63;;;12.77;;
11086;SDS011;5597;47.588;9.642;2023-02-15T04:29:52;17.97;;;12.53;;
11086;SDS011;5597;47.588;9.642;2023-02-15T04:32:18;18.37;;;12.40;;
11086;SDS011;5597;47.588;9.642;2023-02-15T04:34:43;17.73;;;12.37;;
11086;SDS011;5597;47.588;9.642;2023-02-15T04:37:09;19.10;;;12.90;;
11086;SDS011;5597;47.588;9.642;2023-02-15T04:39:35;18.23;;;12.57;;
11086;SDS011;5597;47.588;9.642;2023-02-15T04:42:00;17.07;;;12.43;;
11086;SDS011;5597;47.588;9.642;2023-02-15T04:44:26;16.77;;;12.83;;
11086;SDS011;5597;47.588;9.642;2023-02-15T04:46:51;20.10;;;14.17;;
11086;SDS011;5597;47.588;9.642;2023-02-15T04:49:17;18.80;;;13.10;;
11086;SDS011;5597;47.588;9.642;2023-02-15T04:51:43;18.83;;;13.40;;
11086;SDS011;5597;47.588;9.642;2023-02-15T04:54:08;18.17;;;13.13;;
11086;SDS011;5597;47.588;9.642;2023-02-15T04:56:34;19.47;;;13.20;;
11086;SDS011;5597;47.588;9.642;2023-02-15T04:59:02;20.07;;;13.80;;
11086;SDS011;5597;47.588;9.642;2023-02-15T05:01:28;17.87;;;12.77;;
11086;SDS011;5597;47.588;9.642;2023-02-15T05:03:53;18.30;;;13.23;;
11086;SDS011;5597;47.588;9.642;2023-02-15T05:06:19;16.80;;;12.13;;
11086;SDS011;5597;47.588;9.642;2023-02-15T05:08:45;16.43;;;12.23;;
11086;SDS011;5597;47.588;9.642;2023-02-15T05:11:11;15.47;;;11.20;;
11086;SDS011;5597;47.588;9.642;2023-02-15T05:13:36;19.43;;;14.03;;
11086;SDS011;5597;47.588;9.642;2023-02-15T05:16:02;17.70;;;12.30;;
11086;SDS011;5597;47.588;9.642;2023-02-15T05:18:28;16.40;;;12.03;;
11086;SDS011;5597;47.588;9.642;2023-02-15T05:20:53;19.80;;;14.17;;
11086;SDS011;5597;47.588;9.642;2023-02-15T05:23:19;17.47;;;12.93;;
11086;SDS011;5597;47.588;9.642;2023-02-15T05:25:48;16.67;;;12.40;;
11086;SDS011;5597;47.588;9.642;2023-02-15T05:28:33;16.57;;;12.17;;
11086;SDS011;5597;47.588;9.642;2023-02-15T05:31:07;14.83;;;10.67;;
11086;SDS011;5597;47.588;9.642;2023-02-15T05:33:37;15.17;;;11.23;;
11086;SDS011;5597;47.588;9.642;2023-02-15T05:36:04;14.77;;;11.30;;
11086;SDS011;5597;47.588;9.642;2023-02-15T05:38:30;13.77;;;10.73;;
11086;SDS011;5597;47.588;9.642;2023-02-15T05:40:57;15.87;;;11.80;;
11086;SDS011;5597;47.588;9.642;2023-02-15T05:43:23;15.67;;;11.53;;
11086;SDS011;5597;47.588;9.642;2023-02-15T05:45:50;15.90;;;11.40;;
11086;SDS011;5597;47.588;9.642;2023-02-15T05:48:20;15.13;;;11.33;;
11086;SDS011;5597;47.588;9.642;2023-02-15T05:50:56;15.50;;;11.40;;
11086;SDS011;5597;47.588;9.642;2023-02-15T05:53:30;16.47;;;12.13;;
11086;SDS011;5597;47.588;9.642;2023-02-15T05:55:57;15.77;;;12.07;;
11086;SDS011;5597;47.588;9.642;2023-02-15T05:58:34;16.10;;;11.87;;
11086;SDS011;5597;47.588;9.642;2023-02-15T06:01:15;16.73;;;12.53;;
11086;SDS011;5597;47.588;9.642;2023-02-15T06:03:43;16.30;;;11.43;;
11086;SDS011;5597;47.588;9.642;2023-02-15T06:06:09;16.70;;;11.70;;
11086;SDS011;5597;47.588;9.642;2023-02-15T06:08:36;17.80;;;12.27;;
11086;SDS011;5597;47.588;9.642;2023-02-15T06:11:02;15.77;;;11.60;;
11086;SDS011;5597;47.588;9.642;2023-02-15T06:13:28;17.83;;;12.57;;
11086;SDS011;5597;47.588;9.642;2023-02-15T06:15:54;23.13;;;13.77;;
11086;SDS011;5597;47.588;9.642;2023-02-15T06:18:20;20.57;;;14.50;;
11086;SDS011;5597;47.588;9.642;2023-02-15T06:20:46;18.57;;;13.13;;
11086;SDS011;5597;47.588;9.642;2023-02-15T06:23:12;18.73;;;13.33;;
11086;SDS011;5597;47.588;9.642;2023-02-15T06:25:38;19.97;;;13.73;;
11086;SDS011;5597;47.588;9.642;2023-02-15T06:28:04;17.57;;;12.87;;
11086;SDS011;5597;47.588;9.642;2023-02-15T06:30:29;15.40;;;11.27;;
11086;SDS011;5597;47.588;9.642;2023-02-15T06:32:55;19.97;;;12.93;;
11086;SDS011;5597;47.588;9.642;2023-02-15T06:35:21;16.70;;;11.77;;
11086;SDS011;5597;47.588;9.642;2023-02-15T06:37:47;15.70;;;12.10;;
11086;SDS011;5597;47.588;9.642;2023-02-15T06:40:12;15.13;;;11.10;;
11086;SDS011;5597;47.588;9.642;2023-02-15T06:42:43;16.83;;;11.70;;
11086;SDS011;5597;47.588;9.642;2023-02-15T06:45:09;18.10;;;12.00;;
11086;SDS011;5597;47.588;9.642;2023-02-15T06:47:35;18.87;;;12.93;;
11086;SDS011;5597;47.588;9.642;2023-02-15T06:50:01;19.33;;;13.27;;
11086;SDS011;5597;47.588;9.642;2023-02-15T06:52:27;17.97;;;12.27;;
11086;SDS011;5597;47.588;9.642;2023-02-15T06:54:54;17.80;;;12.13;;
11086;SDS011;5597;47.588;9.642;2023-02-15T06:57:20;19.17;;;13.00;;
11086;SDS011;5597;47.588;9.642;2023-02-15T06:59:46;17.53;;;12.50;;
11086;SDS011;5597;47.588;9.642;2023-02-15T07:02:12;18.17;;;12.40;;
11086;SDS011;5597;47.588;9.642;2023-02-15T07:04:38;18.57;;;11.97;;
11086;SDS011;5597;47.588;9.642;2023-02-15T07:07:04;18.67;;;12.47;;
11086;SDS011;5597;47.588;9.642;2023-02-15T07:09:32;18.90;;;13.23;;
11086;SDS011;5597;47.588;9.642;2023-02-15T07:11:58;21.37;;;13.47;;
11086;SDS011;5597;47.588;9.642;2023-02-15T07:14:42;20.13;;;13.67;;
11086;SDS011;5597;47.588;9.642;2023-02-15T07:17:08;18.87;;;12.43;;
11086;SDS011;5597;47.588;9.642;2023-02-15T07:19:33;18.07;;;12.37;;
11086;SDS011;5597;47.588;9.642;2023-02-15T07:21:59;17.13;;;12.00;;
11086;SDS011;5597;47.588;9.642;2023-02-15T07:24:24;16.03;;;11.70;;
11086;SDS011;5597;47.588;9.642;2023-02-15T07:26:50;18.07;;;12.33;;
11086;SDS011;5597;47.588;9.642;2023-02-15T07:29:16;15.47;;;11.23;;
11086;SDS011;5597;47.588;9.642;2023-02-15T07:31:41;23.10;;;13.60;;
11086;SDS011;5597;47.588;9.642;2023-02-15T07:34:10;15.93;;;11.77;;
11086;SDS011;5597;47.588;9.642;2023-02-15T07:36:36;16.73;;;12.73;;
11086;SDS011;5597;47.588;9.642;2023-02-15T07:39:02;15.70;;;11.73;;
11086;SDS011;5597;47.588;9.642;2023-02-15T07:41:27;17.33;;;11.73;;
11086;SDS011;5597;47.588;9.642;2023-02-15T07:43:53;18.30;;;12.50;;
11086;SDS011;5597;47.588;9.642;2023-02-15T07:46:18;18.60;;;12.83;;
11086;SDS011;5597;47.588;9.642;2023-02-15T07:48:45;20.87;;;13.63;;
11086;SDS011;5597;47.588;9.642;2023-02-15T07:51:12;20.27;;;13.20;;
11086;SDS011;5597;47.588;9.642;2023-02-15T07:53:39;20.10;;;13.63;;
11086;SDS011;5597;47.588;9.642;2023-02-15T07:56:10;21.77;;;13.90;;
11086;SDS011;5597;47.588;9.642;2023-02-15T07:58:37;21.77;;;14.10;;
11086;SDS011;5597;47.588;9.642;2023-02-15T08:01:30;19.10;;;13.07;;
11086;SDS011;5597;47.588;9.642;2023-02-15T08:03:58;19.47;;;12.73;;
11086;SDS011;5597;47.588;9.642;2023-02-15T08:06:24;18.53;;;12.57;;
11086;SDS011;5597;47.588;9.642;2023-02-15T08:08:51;21.83;;;12.90;;
11086;SDS011;5597;47.588;9.642;2023-02-15T08:11:22;18.67;;;12.93;;
11086;SDS011;5597;47.588;9.642;2023-02-15T08:13:52;20.43;;;13.40;;
11086;SDS011;5597;47.588;9.642;2023-02-15T08:16:22;17.97;;;12.77;;
11086;SDS011;5597;47.588;9.642;2023-02-15T08:18:49;19.10;;;13.23;;
11086;SDS011;5597;47.588;9.642;2023-02-15T08:21:16;18.47;;;12.83;;
11086;SDS011;5597;47.588;9.642;2023-02-15T08:23:42;21.83;;;13.73;;
11086;SDS011;5597;47.588;9.642;2023-02-15T08:26:07;21.10;;;14.33;;
11086;SDS011;5597;47.588;9.642;2023-02-15T08:28:33;20.93;;;13.17;;
11086;SDS011;5597;47.588;9.642;2023-02-15T08:31:08;20.30;;;12.90;;
11086;SDS011;5597;47.588;9.642;2023-02-15T08:33:36;19.10;;;12.57;;
11086;SDS011;5597;47.588;9.642;2023-02-15T08:36:10;20.47;;;12.97;;
11086;SDS011;5597;47.588;9.642;2023-02-15T08:38:37;17.50;;;11.83;;
11086;SDS011;5597;47.588;9.642;2023-02-15T08:41:10;22.10;;;14.30;;
11086;SDS011;5597;47.588;9.642;2023-02-15T08:43:44;18.80;;;13.70;;
11086;SDS011;5597;47.588;9.642;2023-02-15T08:46:12;20.83;;;14.03;;
11086;SDS011;5597;47.588;9.642;2023-02-15T08:48:38;19.67;;;13.77;;
11086;SDS011;5597;47.588;9.642;2023-02-15T08:51:05;21.43;;;13.90;;
11086;SDS011;5597;47.588;9.642;2023-02-15T08:53:32;21.13;;;14.07;;
11086;SDS011;5597;47.588;9.642;2023-02-15T08:55:58;19.13;;;12.53;;
11086;SDS011;5597;47.588;9.642;2023-02-15T08:58:24;20.60;;;13.40;;
11086;SDS011;5597;47.588;9.642;2023-02-15T09:00:51;21.27;;;13.83;;
11086;SDS011;5597;47.588;9.642;2023-02-15T09:03:16;22.37;;;13.37;;
11086;SDS011;5597;47.588;9.642;2023-02-15T09:05:42;21.63;;;13.97;;
11086;SDS011;5597;47.588;9.642;2023-02-15T09:08:08;19.40;;;13.87;;
11086;SDS011;5597;47.588;9.642;2023-02-15T09:10:34;19.20;;;13.20;;
11086;SDS011;5597;47.588;9.642;2023-02-15T09:12:59;20.33;;;14.43;;
11086;SDS011;5597;47.588;9.642;2023-02-15T09:15:25;20.67;;;13.20;;
11086;SDS011;5597;47.588;9.642;2023-02-15T09:17:51;19.17;;;12.57;;
11086;SDS011;5597;47.588;9.642;2023-02-15T09:20:17;20.57;;;14.17;;
11086;SDS011;5597;47.588;9.642;2023-02-15T09:22:43;19.20;;;12.43;;
11086;SDS011;5597;47.588;9.642;2023-02-15T09:25:08;23.87;;;14.50;;
11086;SDS011;5597;47.588;9.642;2023-02-15T09:27:34;19.03;;;13.60;;
11086;SDS011;5597;47.588;9.642;2023-02-15T09:30:01;18.33;;;12.67;;
11086;SDS011;5597;47.588;9.642;2023-02-15T09:32:27;23.60;;;14.63;;
11086;SDS011;5597;47.588;9.642;2023-02-15T09:34:53;21.00;;;14.23;;
11086;SDS011;5597;47.588;9.642;2023-02-15T09:37:19;20.70;;;13.60;;
11086;SDS011;5597;47.588;9.642;2023-02-15T09:39:44;18.97;;;12.43;;
11086;SDS011;5597;47.588;9.642;2023-02-15T09:48:02;17.97;;;12.27;;
11086;SDS011;5597;47.588;9.642;2023-02-15T09:50:59;19.50;;;13.13;;
11086;SDS011;5597;47.588;9.642;2023-02-15T09:59:57;18.03;;;12.23;;
11086;SDS011;5597;47.588;9.642;2023-02-15T10:02:57;16.90;;;12.00;;
11086;SDS011;5597;47.588;9.642;2023-02-15T10:05:45;19.57;;;13.50;;
11086;SDS011;5597;47.588;9.642;2023-02-15T10:08:42;19.63;;;13.57;;
11086;SDS011;5597;47.588;9.642;2023-02-15T10:11:25;17.83;;;12.93;;
11086;SDS011;5597;47.588;9.642;2023-02-15T10:16:57;20.33;;;13.50;;
11086;SDS011;5597;47.588;9.642;2023-02-15T10:28:19;16.97;;;11.90;;
11086;SDS011;5597;47.588;9.642;2023-02-15T10:30:49;19.70;;;13.07;;
11086;SDS011;5597;47.588;9.642;2023-02-15T10:39:02;20.47;;;14.10;;
11086;SDS011;5597;47.588;9.642;2023-02-15T10:41:53;21.43;;;14.33;;
11086;SDS011;5597;47.588;9.642;2023-02-15T10:55:42;20.30;;;14.10;;
11086;SDS011;5597;47.588;9.642;2023-02-15T11:01:36;20.50;;;13.73;;
11086;SDS011;5597;47.588;9.642;2023-02-15T11:04:33;19.10;;;13.93;;
11086;SDS011;5597;47.588;9.642;2023-02-15T11:07:20;18.90;;;13.97;;
11086;SDS011;5597;47.588;9.642;2023-02-15T11:10:05;20.13;;;13.70;;
11086;SDS011;5597;47.588;9.642;2023-02-15T11:12:53;18.70;;;13.37;;
11086;SDS011;5597;47.588;9.642;2023-02-15T11:20:53;18.30;;;14.17;;
11086;SDS011;5597;47.588;9.642;2023-02-15T11:23:23;20.43;;;14.40;;
11086;SDS011;5597;47.588;9.642;2023-02-15T11:25:54;17.67;;;13.87;;
11086;SDS011;5597;47.588;9.642;2023-02-15T11:28:26;19.70;;;13.83;;
11086;SDS011;5597;47.588;9.642;2023-02-15T11:31:11;18.87;;;13.73;;
11086;SDS011;5597;47.588;9.642;2023-02-15T11:33:43;17.13;;;13.40;;
11086;SDS011;5597;47.588;9.642;2023-02-15T11:36:16;18.50;;;13.73;;
11086;SDS011;5597;47.588;9.642;2023-02-15T11:38:47;19.53;;;13.97;;
11086;SDS011;5597;47.588;9.642;2023-02-15T11:41:18;18.97;;;14.43;;
11086;SDS011;5597;47.588;9.642;2023-02-15T11:44:00;20.63;;;14.33;;
11086;SDS011;5597;47.588;9.642;2023-02-15T11:46:37;20.30;;;14.53;;
11086;SDS011;5597;47.588;9.642;2023-02-15T11:49:08;19.77;;;14.37;;
11086;SDS011;5597;47.588;9.642;2023-02-15T11:51:56;17.07;;;13.80;;
11086;SDS011;5597;47.588;9.642;2023-02-15T11:54:29;18.37;;;14.03;;
11086;SDS011;5597;47.588;9.642;2023-02-15T11:57:11;16.63;;;12.80;;
11086;SDS011;5597;47.588;9.642;2023-02-15T12:00:23;17.87;;;13.20;;
11086;SDS011;5597;47.588;9.642;2023-02-15T12:02:56;15.50;;;12.40;;
11086;SDS011;5597;47.588;9.642;2023-02-15T12:05:23;17.80;;;13.60;;
11086;SDS011;5597;47.588;9.642;2023-02-15T12:07:52;17.07;;;12.97;;
11086;SDS011;5597;47.588;9.642;2023-02-15T12:10:42;18.60;;;14.13;;
11086;SDS011;5597;47.588;9.642;2023-02-15T12:13:17;20.40;;;14.80;;
11086;SDS011;5597;47.588;9.642;2023-02-15T12:15:48;19.13;;;14.03;;
11086;SDS011;5597;47.588;9.642;2023-02-15T12:21:11;19.77;;;14.60;;
11086;SDS011;5597;47.588;9.642;2023-02-15T12:23:42;17.77;;;13.33;;
11086;SDS011;5597;47.588;9.642;2023-02-15T12:26:13;17.97;;;12.70;;
11086;SDS011;5597;47.588;9.642;2023-02-15T12:28:42;16.90;;;13.17;;
11086;SDS011;5597;47.588;9.642;2023-02-15T12:31:20;18.60;;;12.53;;
11086;SDS011;5597;47.588;9.642;2023-02-15T12:33:50;15.90;;;12.57;;
11086;SDS011;5597;47.588;9.642;2023-02-15T12:36:19;21.73;;;15.00;;
11086;SDS011;5597;47.588;9.642;2023-02-15T12:41:36;17.97;;;13.23;;
11086;SDS011;5597;47.588;9.642;2023-02-15T12:44:24;20.63;;;14.97;;
11086;SDS011;5597;47.588;9.642;2023-02-15T12:49:43;19.60;;;14.50;;
11086;SDS011;5597;47.588;9.642;2023-02-15T12:54:45;19.50;;;14.93;;
11086;SDS011;5597;47.588;9.642;2023-02-15T12:57:22;21.37;;;14.87;;
11086;SDS011;5597;47.588;9.642;2023-02-15T12:59:52;21.23;;;15.03;;
11086;SDS011;5597;47.588;9.642;2023-02-15T13:02:43;21.80;;;14.77;;
11086;SDS011;5597;47.588;9.642;2023-02-15T13:07:52;19.27;;;14.47;;
11086;SDS011;5597;47.588;9.642;2023-02-15T13:13:10;19.93;;;14.90;;
11086;SDS011;5597;47.588;9.642;2023-02-15T13:15:48;21.27;;;14.97;;
11086;SDS011;5597;47.588;9.642;2023-02-15T13:18:17;21.00;;;15.33;;
11086;SDS011;5597;47.588;9.642;2023-02-15T13:20:50;18.90;;;14.33;;
11086;SDS011;5597;47.588;9.642;2023-02-15T13:23:26;22.27;;;15.00;;
11086;SDS011;5597;47.588;9.642;2023-02-15T13:25:53;20.07;;;14.63;;
11086;SDS011;5597;47.588;9.642;2023-02-15T13:28:22;20.97;;;15.07;;
11086;SDS011;5597;47.588;9.642;2023-02-15T13:30:51;22.60;;;15.77;;
11086;SDS011;5597;47.588;9.642;2023-02-15T13:33:21;23.07;;;15.90;;
11086;SDS011;5597;47.588;9.642;2023-02-15T13:38:46;21.47;;;15.20;;
11086;SDS011;5597;47.588;9.642;2023-02-15T13:41:23;22.10;;;15.73;;
11086;SDS011;5597;47.588;9.642;2023-02-15T13:44:15;23.27;;;16.00;;
11086;SDS011;5597;47.588;9.642;2023-02-15T13:47:32;21.20;;;14.53;;
11086;SDS011;5597;47.588;9.642;2023-02-15T13:52:30;24.07;;;16.63;;
11086;SDS011;5597;47.588;9.642;2023-02-15T14:00:47;21.90;;;15.07;;
11086;SDS011;5597;47.588;9.642;2023-02-15T14:11:21;19.40;;;14.37;;
11086;SDS011;5597;47.588;9.642;2023-02-15T14:14:05;20.27;;;14.13;;
11086;SDS011;5597;47.588;9.642;2023-02-15T14:22:30;19.70;;;14.40;;
11086;SDS011;5597;47.588;9.642;2023-02-15T14:30:18;18.77;;;14.00;;
11086;SDS011;5597;47.588;9.642;2023-02-15T14:32:49;19.60;;;13.73;;
11086;SDS011;5597;47.588;9.642;2023-02-15T14:35:20;18.00;;;13.17;;
11086;SDS011;5597;47.588;9.642;2023-02-15T14:38:04;19.00;;;13.87;;
11086;SDS011;5597;47.588;9.642;2023-02-15T14:40:49;17.00;;;13.13;;
11086;SDS011;5597;47.588;9.642;2023-02-15T14:49:10;17.53;;;12.77;;
11086;SDS011;5597;47.588;9.642;2023-02-15T14:54:11;19.90;;;13.70;;
11086;SDS011;5597;47.588;9.642;2023-02-15T14:59:46;19.47;;;13.97;;
11086;SDS011;5597;47.588;9.642;2023-02-15T15:02:29;17.53;;;13.40;;
11086;SDS011;5597;47.588;9.642;2023-02-15T15:05:20;17.57;;;13.33;;
11086;SDS011;5597;47.588;9.642;2023-02-15T15:08:00;16.27;;;12.43;;
11086;SDS011;5597;47.588;9.642;2023-02-15T15:13:33;23.03;;;14.23;;
11086;SDS011;5597;47.588;9.642;2023-02-15T15:18:50;17.93;;;13.37;;
11086;SDS011;5597;47.588;9.642;2023-02-15T15:38:18;20.40;;;13.37;;
11086;SDS011;5597;47.588;9.642;2023-02-15T15:41:18;19.03;;;13.77;;
11086;SDS011;5597;47.588;9.642;2023-02-15T15:49:17;16.63;;;12.50;;
11086;SDS011;5597;47.588;9.642;2023-02-15T15:51:44;18.87;;;13.37;;
11086;SDS011;5597;47.588;9.642;2023-02-15T15:54:14;17.77;;;13.20;;
11086;SDS011;5597;47.588;9.642;2023-02-15T15:56:43;16.80;;;12.73;;
11086;SDS011;5597;47.588;9.642;2023-02-15T15:59:13;17.90;;;12.97;;
11086;SDS011;5597;47.588;9.642;2023-02-15T16:01:49;17.60;;;13.07;;
11086;SDS011;5597;47.588;9.642;2023-02-15T16:04:26;19.07;;;13.90;;
11086;SDS011;5597;47.588;9.642;2023-02-15T16:06:55;19.40;;;14.23;;
11086;SDS011;5597;47.588;9.642;2023-02-15T16:09:23;18.83;;;14.03;;
11086;SDS011;5597;47.588;9.642;2023-02-15T16:11:56;20.60;;;13.57;;
11086;SDS011;5597;47.588;9.642;2023-02-15T16:14:32;17.23;;;13.47;;
11086;SDS011;5597;47.588;9.642;2023-02-15T16:17:02;16.40;;;13.40;;
11086;SDS011;5597;47.588;9.642;2023-02-15T16:19:32;17.00;;;12.43;;
11086;SDS011;5597;47.588;9.642;2023-02-15T16:22:00;18.60;;;13.60;;
11086;SDS011;5597;47.588;9.642;2023-02-15T16:24:46;16.30;;;12.27;;
11086;SDS011;5597;47.588;9.642;2023-02-15T16:27:36;17.83;;;13.97;;
11086;SDS011;5597;47.588;9.642;2023-02-15T16:35:39;19.13;;;13.93;;
11086;SDS011;5597;47.588;9.642;2023-02-15T16:38:17;17.57;;;13.60;;
11086;SDS011;5597;47.588;9.642;2023-02-15T16:40:55;19.70;;;14.07;;
11086;SDS011;5597;47.588;9.642;2023-02-15T16:43:26;18.77;;;13.63;;
11086;SDS011;5597;47.588;9.642;2023-02-15T16:46:06;15.40;;;12.67;;
11086;SDS011;5597;47.588;9.642;2023-02-15T16:48:39;21.83;;;13.50;;
11086;SDS011;5597;47.588;9.642;2023-02-15T16:51:07;16.03;;;12.87;;
11086;SDS011;5597;47.588;9.642;2023-02-15T16:53:34;15.13;;;11.77;;
11086;SDS011;5597;47.588;9.642;2023-02-15T16:56:02;15.67;;;12.47;;
11086;SDS011;5597;47.588;9.642;2023-02-15T16:58:37;17.13;;;13.00;;
11086;SDS011;5597;47.588;9.642;2023-02-15T17:01:08;15.40;;;12.27;;
11086;SDS011;5597;47.588;9.642;2023-02-15T17:03:37;15.20;;;12.30;;
11086;SDS011;5597;47.588;9.642;2023-02-15T17:06:03;15.53;;;11.90;;
11086;SDS011;5597;47.588;9.642;2023-02-15T17:08:52;15.10;;;11.80;;
11086;SDS011;5597;47.588;9.642;2023-02-15T17:11:40;14.90;;;10.77;;
11086;SDS011;5597;47.588;9.642;2023-02-15T17:16:36;13.63;;;10.87;;
11086;SDS011;5597;47.588;9.642;2023-02-15T17:19:18;13.50;;;10.67;;
11086;SDS011;5597;47.588;9.642;2023-02-15T17:21:53;13.23;;;11.17;;
11086;SDS011;5597;47.588;9.642;2023-02-15T17:24:35;13.07;;;10.70;;
11086;SDS011;5597;47.588;9.642;2023-02-15T17:27:37;14.27;;;11.50;;
11086;SDS011;5597;47.588;9.642;2023-02-15T17:29:59;15.40;;;11.83;;
11086;SDS011;5597;47.588;9.642;2023-02-15T17:32:27;15.07;;;12.33;;
11086;SDS011;5597;47.588;9.642;2023-02-15T17:37:43;15.67;;;12.30;;
11086;SDS011;5597;47.588;9.642;2023-02-15T17:40:26;16.37;;;12.43;;
11086;SDS011;5597;47.588;9.642;2023-02-15T17:42:53;19.17;;;12.30;;
11086;SDS011;5597;47.588;9.642;2023-02-15T17:45:20;13.73;;;11.63;;
11086;SDS011;5597;47.588;9.642;2023-02-15T17:47:49;13.33;;;10.90;;
11086;SDS011;5597;47.588;9.642;2023-02-15T17:50:20;19.27;;;14.00;;
11086;SDS011;5597;47.588;9.642;2023-02-15T17:52:50;15.57;;;12.60;;